createdAt,value
2017-08-29T00:00:32.763Z,3.77
2017-08-29T00:03:00.283Z,3.00
2017-08-29T00:05:27.845Z,3.30
2017-08-29T00:07:55.369Z,3.53
2017-08-29T00:10:22.892Z,3.13
2017-08-29T00:12:50.431Z,3.80
2017-08-29T00:15:17.951Z,3.10
2017-08-29T00:17:45.499Z,3.60
2017-08-29T00:20:13.025Z,3.40
2017-08-29T00:22:40.566Z,2.80
2017-08-29T00:25:08.088Z,3.97
2017-08-29T00:27:35.638Z,3.80
2017-08-29T00:30:03.157Z,3.07
2017-08-29T00:32:30.699Z,3.57
2017-08-29T00:34:58.231Z,3.03
2017-08-29T00:37:25.776Z,3.17
2017-08-29T00:39:53.322Z,4.57
2017-08-29T00:42:20.882Z,3.57
2017-08-29T00:44:48.399Z,3.40
2017-08-29T00:47:15.923Z,3.40
2017-08-29T00:49:43.460Z,3.17
2017-08-29T00:52:10.986Z,3.37
2017-08-29T00:54:38.531Z,3.87
2017-08-29T00:57:06.050Z,3.43
2017-08-29T00:59:33.589Z,3.73
2017-08-29T01:02:01.106Z,3.50
2017-08-29T01:04:28.642Z,3.50
2017-08-29T01:06:56.159Z,3.07
2017-08-29T01:09:23.695Z,3.00
2017-08-29T01:11:51.210Z,3.67
2017-08-29T01:14:18.754Z,3.07
2017-08-29T01:16:46.278Z,3.87
2017-08-29T01:19:13.822Z,3.30
2017-08-29T01:21:42.210Z,3.60
2017-08-29T01:24:09.731Z,2.90
2017-08-29T01:26:37.272Z,3.97
2017-08-29T01:29:04.794Z,3.40
2017-08-29T01:31:32.329Z,3.50
2017-08-29T01:33:59.842Z,3.70
2017-08-29T01:36:27.383Z,3.40
2017-08-29T01:38:54.901Z,4.03
2017-08-29T01:41:22.442Z,3.57
2017-08-29T01:43:49.986Z,3.80
2017-08-29T01:46:17.531Z,3.73
2017-08-29T01:48:45.047Z,3.87
2017-08-29T01:51:12.592Z,3.50
2017-08-29T01:53:40.875Z,3.50
2017-08-29T01:56:08.415Z,3.20
2017-08-29T01:58:35.947Z,4.07
2017-08-29T02:01:03.486Z,3.07
2017-08-29T02:03:31.007Z,2.83
2017-08-29T02:05:58.531Z,3.17
2017-08-29T02:08:26.075Z,3.03
2017-08-29T02:10:53.591Z,3.40
2017-08-29T02:13:21.133Z,3.33
2017-08-29T02:15:48.664Z,3.00
2017-08-29T02:18:16.202Z,3.70
2017-08-29T02:20:43.724Z,3.70
2017-08-29T02:23:11.267Z,3.30
2017-08-29T02:25:38.782Z,3.57
2017-08-29T02:28:06.313Z,3.87
2017-08-29T02:30:33.835Z,3.43
2017-08-29T02:33:01.371Z,3.40
2017-08-29T02:35:28.895Z,3.73
2017-08-29T02:37:56.431Z,3.00
2017-08-29T02:40:23.952Z,2.90
2017-08-29T02:42:51.496Z,4.10
2017-08-29T02:45:19.015Z,3.60
2017-08-29T02:47:46.532Z,4.40
2017-08-29T02:50:14.075Z,3.70
2017-08-29T02:52:41.595Z,3.53
2017-08-29T02:55:09.903Z,3.97
2017-08-29T02:57:37.419Z,3.80
2017-08-29T03:00:04.960Z,3.53
2017-08-29T03:02:32.478Z,3.50
2017-08-29T03:05:00.019Z,3.40
2017-08-29T03:07:29.303Z,2.93
2017-08-29T03:09:56.838Z,2.70
2017-08-29T03:12:24.360Z,3.13
2017-08-29T03:14:51.894Z,3.07
2017-08-29T03:17:19.415Z,3.10
2017-08-29T03:19:46.960Z,3.40
2017-08-29T03:22:14.483Z,3.07
2017-08-29T03:24:41.998Z,3.47
2017-08-29T03:27:09.545Z,3.77
2017-08-29T03:29:37.079Z,3.30
2017-08-29T03:32:04.624Z,3.93
2017-08-29T03:34:32.147Z,3.80
2017-08-29T03:36:59.686Z,3.60
2017-08-29T03:39:27.203Z,2.73
2017-08-29T03:41:54.742Z,3.37
2017-08-29T03:44:22.266Z,2.70
2017-08-29T03:46:49.810Z,3.30
2017-08-29T03:49:17.332Z,3.70
2017-08-29T03:51:45.634Z,4.10
2017-08-29T03:54:13.151Z,3.90
2017-08-29T03:56:40.692Z,5.20
2017-08-29T03:59:08.207Z,3.97
2017-08-29T04:01:35.759Z,3.77
2017-08-29T04:04:03.279Z,3.80
2017-08-29T04:06:30.799Z,3.90
2017-08-29T04:08:58.338Z,4.03
2017-08-29T04:11:25.864Z,3.23
2017-08-29T04:13:53.404Z,2.90
2017-08-29T04:16:20.925Z,2.40
2017-08-29T04:18:48.464Z,2.60
2017-08-29T04:21:15.982Z,2.77
2017-08-29T04:23:43.523Z,2.60
2017-08-29T04:26:11.043Z,3.00
2017-08-29T04:28:38.583Z,3.30
2017-08-29T04:31:06.103Z,3.67
2017-08-29T04:33:33.629Z,4.07
2017-08-29T04:36:01.167Z,3.63
2017-08-29T04:38:28.687Z,3.30
2017-08-29T04:40:56.229Z,3.00
2017-08-29T04:43:23.746Z,3.60
2017-08-29T04:45:52.060Z,3.00
2017-08-29T04:48:19.579Z,3.53
2017-08-29T04:50:47.115Z,3.50
2017-08-29T04:53:14.639Z,4.10
2017-08-29T04:55:42.184Z,3.00
2017-08-29T04:58:09.720Z,4.43
2017-08-29T05:00:37.259Z,3.60
2017-08-29T05:03:04.774Z,3.90
2017-08-29T05:05:32.334Z,4.07
2017-08-29T05:07:59.875Z,3.93
2017-08-29T05:10:27.395Z,4.03
2017-08-29T05:12:54.948Z,3.80
2017-08-29T05:15:22.471Z,3.73
2017-08-29T05:17:50.025Z,3.57
2017-08-29T05:20:17.551Z,3.83
2017-08-29T05:22:45.095Z,3.50
2017-08-29T05:25:12.624Z,4.10
2017-08-29T05:27:40.162Z,2.93
2017-08-29T05:30:07.688Z,3.47
2017-08-29T05:32:35.234Z,3.30
2017-08-29T05:35:02.758Z,3.90
2017-08-29T05:37:30.311Z,3.27
2017-08-29T05:39:57.823Z,3.17
2017-08-29T05:42:25.343Z,3.83
2017-08-29T05:44:52.883Z,3.20
2017-08-29T05:47:20.411Z,3.50
2017-08-29T05:49:47.959Z,3.17
2017-08-29T05:52:15.475Z,3.70
2017-08-29T05:54:43.015Z,3.00
2017-08-29T05:57:10.541Z,2.80
2017-08-29T05:59:38.079Z,2.83
2017-08-29T06:02:05.604Z,2.97
2017-08-29T06:04:33.146Z,2.87
2017-08-29T06:07:00.663Z,3.37
2017-08-29T06:09:28.210Z,3.63
2017-08-29T06:11:55.727Z,3.90
2017-08-29T06:14:23.281Z,3.80
2017-08-29T06:16:50.800Z,3.00
2017-08-29T06:19:18.319Z,2.60
2017-08-29T06:21:45.863Z,3.10
2017-08-29T06:24:13.389Z,3.50
2017-08-29T06:26:40.935Z,2.93
2017-08-29T06:29:08.460Z,3.00
2017-08-29T06:31:36.020Z,3.27
2017-08-29T06:34:03.552Z,3.00
2017-08-29T06:36:31.100Z,3.40
2017-08-29T06:38:58.627Z,3.90
2017-08-29T06:41:26.162Z,2.80
2017-08-29T06:43:53.688Z,3.27
2017-08-29T06:46:21.226Z,3.03
2017-08-29T06:48:48.742Z,3.37
2017-08-29T06:51:16.330Z,3.50
2017-08-29T06:53:43.852Z,3.27
2017-08-29T06:56:11.403Z,3.17
2017-08-29T06:58:38.934Z,3.00
2017-08-29T07:01:06.463Z,2.73
2017-08-29T07:03:34.020Z,3.10
2017-08-29T07:06:01.546Z,2.60
2017-08-29T07:08:29.087Z,2.90
2017-08-29T07:10:56.603Z,2.47
2017-08-29T07:13:24.138Z,2.90
2017-08-29T07:15:51.659Z,3.57
2017-08-29T07:18:19.206Z,2.80
2017-08-29T07:20:47.495Z,2.97
2017-08-29T07:23:15.040Z,3.10
2017-08-29T07:25:42.558Z,3.03
2017-08-29T07:28:10.103Z,2.73
2017-08-29T07:30:37.620Z,2.87
2017-08-29T07:33:05.156Z,2.90
2017-08-29T07:35:32.675Z,2.80
2017-08-29T07:38:00.224Z,3.23
2017-08-29T07:40:27.738Z,2.40
2017-08-29T07:42:55.268Z,3.00
2017-08-29T07:45:22.802Z,2.73
2017-08-29T07:47:50.327Z,2.30
2017-08-29T07:50:17.872Z,3.40
2017-08-29T07:52:45.389Z,2.27
2017-08-29T07:55:12.936Z,2.53
2017-08-29T07:57:40.451Z,2.13
2017-08-29T08:00:08.000Z,2.40
2017-08-29T08:02:35.587Z,2.60
2017-08-29T08:05:03.133Z,2.70
2017-08-29T08:07:30.655Z,2.47
2017-08-29T08:09:58.203Z,2.77
2017-08-29T08:12:25.727Z,2.90
2017-08-29T08:14:53.250Z,2.90
2017-08-29T08:17:20.789Z,3.10
2017-08-29T08:19:48.316Z,2.80
2017-08-29T08:22:15.863Z,3.40
2017-08-29T08:24:43.389Z,2.80
2017-08-29T08:27:10.932Z,3.50
2017-08-29T08:29:38.454Z,3.63
2017-08-29T08:32:05.997Z,3.20
2017-08-29T08:34:33.525Z,2.80
2017-08-29T08:37:01.067Z,3.20
2017-08-29T08:39:28.588Z,3.00
2017-08-29T08:41:56.118Z,3.27
2017-08-29T08:44:23.636Z,3.37
2017-08-29T08:46:51.195Z,3.80
2017-08-29T08:49:18.717Z,2.87
2017-08-29T08:51:46.235Z,3.37
2017-08-29T08:54:13.785Z,3.40
2017-08-29T08:56:41.307Z,3.13
2017-08-29T08:59:08.851Z,3.53
2017-08-29T09:01:36.368Z,3.40
2017-08-29T09:04:03.908Z,3.23
2017-08-29T09:06:31.431Z,3.47
2017-08-29T09:08:58.974Z,3.30
2017-08-29T09:11:26.496Z,3.30
2017-08-29T09:13:54.035Z,3.40
2017-08-29T09:16:21.555Z,3.87
2017-08-29T09:18:49.099Z,3.47
2017-08-29T09:21:16.618Z,3.57
2017-08-29T09:23:44.154Z,3.40
2017-08-29T09:26:11.674Z,3.43
2017-08-29T09:28:39.222Z,3.50
2017-08-29T09:31:06.751Z,2.70
2017-08-29T09:33:34.275Z,3.33
2017-08-29T09:36:01.820Z,3.50
2017-08-29T09:38:29.347Z,3.03
2017-08-29T09:40:56.893Z,3.90
2017-08-29T09:43:24.419Z,3.30
2017-08-29T09:45:51.955Z,2.90
2017-08-29T09:48:19.483Z,3.60
2017-08-29T09:50:47.025Z,3.40
2017-08-29T09:53:14.555Z,2.90
2017-08-29T09:55:42.101Z,4.37
2017-08-29T09:58:09.619Z,3.83
2017-08-29T10:00:37.168Z,2.90
2017-08-29T10:03:04.696Z,3.30
2017-08-29T10:05:32.215Z,3.90
2017-08-29T10:07:59.750Z,3.80
2017-08-29T10:10:27.288Z,3.70
2017-08-29T10:12:54.835Z,3.97
2017-08-29T10:15:22.360Z,3.83
2017-08-29T10:17:49.904Z,3.53
2017-08-29T10:20:17.433Z,3.70
2017-08-29T10:22:44.992Z,4.03
2017-08-29T10:25:12.516Z,3.70
2017-08-29T10:27:40.058Z,3.90
2017-08-29T10:30:08.446Z,3.60
2017-08-29T10:32:35.991Z,3.70
2017-08-29T10:35:03.524Z,4.00
2017-08-29T10:37:31.070Z,4.70
2017-08-29T10:39:58.586Z,4.47
2017-08-29T10:42:26.116Z,3.70
2017-08-29T10:44:53.655Z,4.00
2017-08-29T10:47:21.175Z,3.90
2017-08-29T10:49:48.720Z,4.60
2017-08-29T10:52:16.244Z,3.90
2017-08-29T10:54:43.791Z,4.50
2017-08-29T10:57:11.310Z,4.00
2017-08-29T10:59:38.854Z,4.30
2017-08-29T11:02:06.370Z,3.97
2017-08-29T11:04:33.916Z,4.00
2017-08-29T11:07:01.436Z,4.57
2017-08-29T11:09:28.980Z,5.17
2017-08-29T11:11:56.503Z,3.93
2017-08-29T11:14:24.060Z,4.40
2017-08-29T11:16:51.590Z,4.80
2017-08-29T11:19:19.116Z,4.43
2017-08-29T11:21:46.663Z,4.43
2017-08-29T11:24:14.187Z,4.20
2017-08-29T11:26:41.728Z,5.27
2017-08-29T11:29:09.254Z,4.90
2017-08-29T11:31:36.798Z,4.27
2017-08-29T11:34:04.320Z,5.00
2017-08-29T11:36:31.868Z,5.20
2017-08-29T11:38:59.396Z,4.80
2017-08-29T11:41:26.929Z,5.77
2017-08-29T11:43:54.455Z,4.43
2017-08-29T11:46:22.020Z,4.50
2017-08-29T11:48:49.557Z,5.77
2017-08-29T11:51:17.083Z,4.87
2017-08-29T11:53:44.629Z,4.60
2017-08-29T11:56:12.146Z,5.17
2017-08-29T11:58:39.687Z,6.03
2017-08-29T12:01:07.212Z,5.00
2017-08-29T12:03:34.755Z,4.80
2017-08-29T12:06:02.274Z,5.23
2017-08-29T12:08:29.817Z,4.80
2017-08-29T12:10:57.339Z,6.03
2017-08-29T12:13:24.873Z,6.00
2017-08-29T12:15:52.398Z,5.30
2017-08-29T12:18:19.943Z,6.00
2017-08-29T12:20:48.228Z,5.90
2017-08-29T12:23:15.752Z,7.40
2017-08-29T12:25:43.287Z,6.63
2017-08-29T12:28:10.812Z,5.73
2017-08-29T12:30:38.352Z,5.57
2017-08-29T12:33:05.875Z,5.77
2017-08-29T12:35:33.416Z,6.60
2017-08-29T12:38:00.942Z,6.10
2017-08-29T12:40:28.487Z,5.93
2017-08-29T12:42:56.029Z,5.63
2017-08-29T12:45:23.559Z,5.60
2017-08-29T12:47:51.098Z,6.13
2017-08-29T12:50:18.615Z,7.00
2017-08-29T12:52:46.155Z,5.63
2017-08-29T12:55:13.687Z,5.20
2017-08-29T12:57:41.232Z,6.10
2017-08-29T13:00:08.760Z,6.57
2017-08-29T13:02:36.306Z,5.63
2017-08-29T13:05:03.828Z,6.30
2017-08-29T13:07:31.380Z,6.13
2017-08-29T13:09:58.900Z,5.90
2017-08-29T13:12:26.454Z,5.70
2017-08-29T13:14:53.982Z,5.93
2017-08-29T13:17:21.513Z,5.37
2017-08-29T13:19:49.051Z,5.40
2017-08-29T13:22:16.583Z,5.10
2017-08-29T13:24:44.123Z,5.17
2017-08-29T13:27:11.648Z,6.37
2017-08-29T13:29:39.194Z,5.43
2017-08-29T13:32:06.710Z,5.67
2017-08-29T13:34:34.255Z,5.30
2017-08-29T13:37:01.778Z,5.43
2017-08-29T13:39:29.327Z,5.20
2017-08-29T13:41:56.857Z,5.83
2017-08-29T13:44:24.389Z,5.60
2017-08-29T13:46:51.935Z,5.67
2017-08-29T13:49:19.463Z,5.23
2017-08-29T13:51:47.016Z,6.00
2017-08-29T13:54:14.534Z,5.93
2017-08-29T13:56:42.086Z,7.07
2017-08-29T13:59:09.610Z,5.30
2017-08-29T14:01:37.145Z,5.67
2017-08-29T14:04:04.663Z,5.33
2017-08-29T14:06:32.223Z,6.40
2017-08-29T14:08:59.747Z,6.17
2017-08-29T14:11:27.267Z,6.10
2017-08-29T14:13:54.813Z,5.50
2017-08-29T14:16:22.335Z,6.37
2017-08-29T14:18:49.879Z,5.13
2017-08-29T14:21:17.398Z,6.00
2017-08-29T14:23:44.943Z,5.40
2017-08-29T14:26:12.464Z,5.70
2017-08-29T14:28:39.998Z,4.80
2017-08-29T14:31:07.519Z,5.57
2017-08-29T14:33:35.059Z,5.57
2017-08-29T14:36:02.587Z,5.53
2017-08-29T14:38:30.147Z,5.77
2017-08-29T14:40:57.661Z,5.27
2017-08-29T14:43:25.183Z,5.43
2017-08-29T14:45:52.726Z,5.40
2017-08-29T14:48:32.110Z,5.97
2017-08-29T14:50:59.647Z,5.07
2017-08-29T14:53:27.162Z,5.30
2017-08-29T14:55:54.712Z,5.97
2017-08-29T14:58:22.235Z,5.73
2017-08-29T15:00:49.783Z,6.07
2017-08-29T15:03:17.308Z,6.20
2017-08-29T15:05:44.855Z,4.93
2017-08-29T15:08:12.386Z,4.60
2017-08-29T15:10:39.930Z,5.80
2017-08-29T15:13:07.456Z,5.27
2017-08-29T15:15:34.992Z,5.80
2017-08-29T15:18:02.518Z,5.40
2017-08-29T15:20:30.066Z,5.70
2017-08-29T15:22:57.634Z,6.07
2017-08-29T15:25:25.150Z,6.00
2017-08-29T15:27:52.692Z,4.80
2017-08-29T15:30:20.211Z,5.30
2017-08-29T15:32:47.754Z,5.60
2017-08-29T15:35:15.285Z,4.83
2017-08-29T15:37:42.823Z,6.30
2017-08-29T15:40:10.353Z,5.87
2017-08-29T15:42:37.900Z,5.60
2017-08-29T15:45:05.439Z,5.37
2017-08-29T15:47:32.980Z,6.17
2017-08-29T15:50:00.504Z,6.37
2017-08-29T15:52:28.058Z,6.40
2017-08-29T15:54:55.570Z,6.27
2017-08-29T15:57:23.091Z,5.60
2017-08-29T15:59:50.631Z,5.70
2017-08-29T16:02:18.155Z,6.10
2017-08-29T16:04:45.699Z,6.13
2017-08-29T16:07:13.227Z,6.30
2017-08-29T16:09:40.766Z,6.47
2017-08-29T16:12:08.284Z,6.37
2017-08-29T16:14:35.826Z,6.70
2017-08-29T16:17:03.361Z,7.53
2017-08-29T16:19:30.904Z,6.60
2017-08-29T16:21:58.430Z,7.20
2017-08-29T16:24:25.979Z,7.10
2017-08-29T16:26:53.502Z,6.63
2017-08-29T16:29:21.031Z,6.13
2017-08-29T16:31:48.589Z,5.93
2017-08-29T16:34:16.107Z,6.23
2017-08-29T16:36:43.647Z,7.47
2017-08-29T16:39:11.171Z,8.50
2017-08-29T16:41:38.720Z,6.80
2017-08-29T16:44:06.238Z,7.93
2017-08-29T16:46:33.787Z,6.03
2017-08-29T16:49:01.307Z,6.77
2017-08-29T16:51:28.855Z,7.70
2017-08-29T16:53:56.379Z,8.80
2017-08-29T16:56:23.941Z,8.30
2017-08-29T16:58:51.462Z,8.03
2017-08-29T17:01:18.976Z,7.93
2017-08-29T17:03:46.524Z,7.00
2017-08-29T17:06:14.051Z,7.40
2017-08-29T17:08:41.591Z,8.20
2017-08-29T17:11:09.116Z,7.50
2017-08-29T17:13:36.662Z,8.00
2017-08-29T17:16:04.187Z,9.00
2017-08-29T17:18:31.735Z,8.87
2017-08-29T17:20:59.257Z,8.50
2017-08-29T17:23:26.799Z,9.27
2017-08-29T17:25:54.324Z,7.00
2017-08-29T17:28:21.884Z,8.33
2017-08-29T17:30:49.403Z,8.27
2017-08-29T17:33:16.954Z,8.13
2017-08-29T17:35:44.480Z,8.40
2017-08-29T17:38:12.015Z,8.23
2017-08-29T17:40:39.569Z,8.33
2017-08-29T17:43:07.109Z,9.20
2017-08-29T17:45:34.650Z,9.20
2017-08-29T17:48:02.174Z,8.80
2017-08-29T17:50:29.719Z,9.30
2017-08-29T17:52:57.247Z,7.87
2017-08-29T17:55:24.794Z,8.70
2017-08-29T17:57:52.315Z,9.13
2017-08-29T18:00:19.858Z,9.07
2017-08-29T18:02:47.383Z,7.97
2017-08-29T18:05:14.922Z,8.63
2017-08-29T18:07:42.452Z,8.50
2017-08-29T18:10:10.004Z,8.43
2017-08-29T18:12:37.532Z,9.67
2017-08-29T18:15:05.055Z,8.50
2017-08-29T18:17:32.604Z,9.43
2017-08-29T18:20:00.132Z,9.07
2017-08-29T18:22:27.674Z,9.40
2017-08-29T18:24:55.286Z,10.10
2017-08-29T18:27:22.831Z,9.77
2017-08-29T18:29:50.355Z,8.77
2017-08-29T18:32:17.991Z,9.17
2017-08-29T18:34:45.506Z,8.70
2017-08-29T18:37:13.042Z,8.97
2017-08-29T18:39:40.557Z,7.30
2017-08-29T18:42:08.111Z,8.40
2017-08-29T18:44:35.640Z,10.50
2017-08-29T18:47:03.166Z,10.43
2017-08-29T18:49:30.717Z,9.07
2017-08-29T18:51:58.245Z,9.13
2017-08-29T18:54:25.790Z,9.63
2017-08-29T18:56:53.479Z,10.10
2017-08-29T18:59:21.064Z,10.40
2017-08-29T19:01:48.606Z,10.47
2017-08-29T19:04:16.147Z,9.00
2017-08-29T19:06:43.675Z,10.73
2017-08-29T19:09:11.232Z,9.77
2017-08-29T19:11:38.760Z,9.80
2017-08-29T19:14:06.293Z,10.73
2017-08-29T19:16:33.852Z,10.40
2017-08-29T19:19:01.379Z,9.53
2017-08-29T19:21:28.929Z,8.70
2017-08-29T19:23:56.456Z,10.23
2017-08-29T19:26:24.003Z,9.50
2017-08-29T19:28:51.530Z,9.07
2017-08-29T19:31:19.075Z,9.67
2017-08-29T19:33:46.615Z,9.60
2017-08-29T19:36:14.158Z,9.57
2017-08-29T19:38:41.689Z,10.10
2017-08-29T19:41:09.247Z,10.37
2017-08-29T19:43:36.781Z,10.53
2017-08-29T19:46:04.311Z,10.13
2017-08-29T19:48:31.865Z,9.40
2017-08-29T19:50:59.395Z,9.27
2017-08-29T19:53:26.939Z,9.53
2017-08-29T19:55:54.461Z,9.90
2017-08-29T19:58:22.005Z,10.17
2017-08-29T20:00:49.532Z,8.67
2017-08-29T20:03:17.078Z,10.83
2017-08-29T20:05:44.638Z,9.50
2017-08-29T20:08:12.184Z,9.73
2017-08-29T20:10:39.725Z,10.20
2017-08-29T20:13:07.275Z,10.03
2017-08-29T20:15:34.804Z,9.60
2017-08-29T20:18:02.329Z,9.43
2017-08-29T20:20:29.870Z,8.97
2017-08-29T20:22:57.391Z,8.70
2017-08-29T20:25:24.934Z,9.40
2017-08-29T20:27:52.464Z,9.33
2017-08-29T20:30:20.013Z,9.80
2017-08-29T20:32:47.535Z,9.60
2017-08-29T20:35:15.078Z,9.70
2017-08-29T20:37:42.612Z,9.23
2017-08-29T20:40:10.171Z,10.90
2017-08-29T20:42:37.701Z,10.47
2017-08-29T20:45:05.233Z,9.50
2017-08-29T20:47:33.798Z,10.10
2017-08-29T20:50:02.090Z,10.80
2017-08-29T20:52:29.635Z,10.57
2017-08-29T20:54:57.173Z,9.90
2017-08-29T20:57:24.724Z,10.30
2017-08-29T20:59:52.247Z,9.40
2017-08-29T21:02:19.790Z,9.93
2017-08-29T21:04:47.314Z,10.67
2017-08-29T21:07:14.843Z,10.00
2017-08-29T21:09:42.399Z,10.20
2017-08-29T21:12:09.925Z,9.60
2017-08-29T21:14:37.476Z,8.63
2017-08-29T21:17:05.007Z,8.90
2017-08-29T21:19:32.576Z,9.80
2017-08-29T21:22:00.094Z,8.90
2017-08-29T21:24:27.645Z,8.40
2017-08-29T21:26:55.167Z,9.77
2017-08-29T21:29:22.707Z,9.30
2017-08-29T21:31:50.239Z,10.93
2017-08-29T21:34:17.794Z,8.47
2017-08-29T21:36:45.323Z,10.50
2017-08-29T21:39:12.849Z,10.03
2017-08-29T21:41:40.400Z,9.57
2017-08-29T21:44:07.931Z,10.00
2017-08-29T21:46:35.477Z,9.27
2017-08-29T21:49:03.030Z,8.93
2017-08-29T21:51:30.574Z,8.80
2017-08-29T21:53:58.095Z,9.50
2017-08-29T21:56:25.639Z,9.63
2017-08-29T21:58:53.182Z,9.60
2017-08-29T22:01:20.747Z,12.30
2017-08-29T22:03:48.280Z,10.13
2017-08-29T22:06:15.834Z,9.50
2017-08-29T22:08:43.362Z,10.10
2017-08-29T22:11:10.890Z,10.00
2017-08-29T22:13:38.435Z,10.43
2017-08-29T22:16:05.959Z,9.63
2017-08-29T22:18:33.502Z,9.23
2017-08-29T22:21:01.023Z,8.43
2017-08-29T22:23:28.563Z,8.07
2017-08-29T22:25:56.082Z,8.60
2017-08-29T22:28:23.623Z,9.77
2017-08-29T22:30:51.145Z,9.83
2017-08-29T22:33:19.455Z,11.00
2017-08-29T22:35:46.983Z,10.40
2017-08-29T22:38:14.526Z,8.60
2017-08-29T22:40:42.050Z,11.10
2017-08-29T22:43:09.596Z,10.20
2017-08-29T22:45:37.129Z,11.00
2017-08-29T22:48:04.684Z,10.80
2017-08-29T22:50:32.211Z,11.10
2017-08-29T22:52:59.747Z,11.30
2017-08-29T22:55:27.292Z,9.73
2017-08-29T22:57:54.820Z,10.50
2017-08-29T23:00:22.362Z,9.93
2017-08-29T23:02:49.894Z,9.80
2017-08-29T23:05:17.434Z,10.53
2017-08-29T23:07:44.967Z,9.83
2017-08-29T23:10:12.506Z,9.40
2017-08-29T23:12:40.031Z,9.60
2017-08-29T23:15:07.582Z,9.77
2017-08-29T23:17:35.103Z,9.60
2017-08-29T23:20:02.661Z,9.80
2017-08-29T23:22:30.186Z,8.80
2017-08-29T23:24:57.702Z,8.80
2017-08-29T23:27:25.250Z,11.23
2017-08-29T23:29:52.770Z,9.87
2017-08-29T23:32:20.309Z,9.97
2017-08-29T23:34:47.836Z,10.40
2017-08-29T23:37:15.392Z,10.47
2017-08-29T23:39:42.919Z,11.50
2017-08-29T23:42:10.466Z,10.80
2017-08-29T23:44:37.995Z,9.30
2017-08-29T23:47:05.539Z,10.67
2017-08-29T23:49:33.070Z,9.10
2017-08-29T23:52:00.615Z,9.20
2017-08-29T23:54:28.140Z,9.63
2017-08-29T23:56:55.661Z,10.23
2017-08-29T23:59:23.210Z,9.67
